Tiempo atmosférico en la estación meteorológica de Molina de Segura, Murcia (170 m.)



Fecha
DESCASC
Temp. máxima en grados centígrados (hora)
DESCASC
Temp. mínima en grados centígrados (hora)
DESCASC
Temp. media en grados centígrados
DESCASC
Racha de viento máxima en m/sg (hora)
DESCASC
Velocidad máxima media en intervalos de 10 minutos(hora)
DESCASC
Precipitaciones diarias en mm
DESCASC
Precipitaciones de 00:00 a 06:00 en mm
DESCASC
Precipitaciones de 06:00 a 12:00 en mm
DESCASC
Precipitaciones de 12:00 a 18:00 en mm
DESCASC
Precipitaciones de 18:00 a 24:00 en mm
DESCASC
27-01-2020 15.8 (15:10) 5.1 (06:50) 10.5 8.89 (11:10) 5 (11:10) 0 0 0 0 0
26-01-2020 16.1 (15:20) 6.9 (06:30) 11.5 10.83 (14:30) 6.67 (15:20) 0.2 0 0.2 0 0
25-01-2020 13.7 (13:00) 8.6 (00:00) 11.2 4.17 (14:20) 2.5 (14:00) 1 0 0 0 1
24-01-2020 13.6 (16:00) 7.8 (00:00) 10.7 5.83 (14:10) 3.89 (14:00) 0 0 0 0 0
23-01-2020 14.9 (15:10) 5.4 (00:00) 10.1 6.94 (18:20) 4.17 (17:00) 0 0 0 0 0
22-01-2020 15 (15:00) 6.6 (00:00) 10.8 5.28 (00:20) 2.78 (18:00) 6.8 6.8 0 0 0
21-01-2020 10 (15:20) 7.1 (00:00) 8.5 13.33 (04:00) 8.33 (04:10) 51 10.2 32.6 7 1.2
20-01-2020 8.5 (14:20) 4.9 (00:00) 6.7 16.39 (05:40) 9.17 (06:00) 12.4 0 3 2 7.4
19-01-2020 12.4 (12:40) 5.8 (00:00) 9.1 20 (17:50) 12.78 (18:20) 3.2 0 0 0 3.2
18-01-2020 14.2 (17:20) 6.4 (00:00) 10.3 6.67 (11:00) 4.17 (10:40) 0 0 0 0 0
17-01-2020 18.6 (15:10) 5.3 (00:00) 12 10.83 (16:10) 7.5 (16:10) 0 0 0 0 0
16-01-2020 18.4 (15:40) 4.9 (00:00) 11.6 8.61 (04:30) 5.56 (04:30) 0 0 0 0 0
15-01-2020 16.7 (16:00) 3.9 (00:00) 10.3 8.06 (09:40) 5.56 (09:40) 0 0 0 0 0
14-01-2020 15.9 (16:00) 3.9 (00:00) 9.9 9.17 (10:20) 6.11 (10:10) 0 0 0 0 0
13-01-2020 14.4 (15:20) 1.2 (00:00) 7.8 6.39 (11:40) 4.17 (05:40) 0 0 0 0 0
12-01-2020 16.3 (15:20) 2.9 (00:00) 9.6 10 (09:10) 6.39 (09:40) 0 0 0 0 0
11-01-2020 16 (16:20) 4.5 (00:00) 10.3 10.28 (00:20) 6.67 (00:20) 0 0 0 0 0
10-01-2020 15.9 (15:50) 5.1 (00:00) 10.5 11.39 (20:50) 6.39 (20:20) 0 0 0 0 0
09-01-2020 15.3 (14:40) 6.4 (00:00) 10.9 6.39 (10:30) 4.44 (10:40) 0 0 0 0 0
08-01-2020 14.6 (15:10) 3.9 (00:00) 9.3 7.78 (15:40) 5 (15:30) 0 0 0 0 0
07-01-2020 15.3 (15:50) 1.2 (00:00) 8.3 2.5 (01:10) 1.67 (01:10) 0 0 0 0 0
06-01-2020 14.9 (15:20) 2.7 (00:00) 8.8 4.17 (05:40) 2.5 (09:30) 0 0 0 0 0
05-01-2020 15.6 (16:20) 4.1 (00:00) 9.9 6.11 (01:30) 3.61 (01:30) 0 0 0 0 0
04-01-2020 14.7 (15:00) 4.6 (00:00) 9.6 7.22 (05:10) 5 (05:20) 0 0 0 0 0
03-01-2020 17.1 (16:00) 3 (00:00) 10.1 7.78 (02:30) 5.28 (08:00) 0 0 0 0 0
02-01-2020 11.1 (16:20) 6.7 (00:00) 8.9 8.89 (22:50) 5.28 (23:00) 0 0 0 0 0
01-01-2020 13.9 (15:30) 4.3 (00:00) 9.1 6.67 (11:40) 4.72 (10:50) 0 0 0 0 0
31-12-2019 14.6 (15:20) 3.6 (00:00) 9.1 4.72 (06:30) 3.61 (06:20) 0 0 0 0 0
30-12-2019 -- (--) -- (--) -- -- (--) -- (--) -- 0 0 0 --

Gráficas

Temp. máximas Temp. mínimas Temp. medias Precipitaciones Rachas de viento máximas Velocidades máximas media en intervalos de 10 minutos

Datos horarios

Fecha y hora oficial Temperatura (ºC) Velocidad del viento (km/h) Dirección del viento Racha (km/h) Dirección de racha Precipitación (mm) Presión (hPa) Tendencia (hPa) Humedad (%)
2020-01-28 23:00:00 15.1 12 Noroeste 22 Noroeste 0 -- -- 65
2020-01-28 22:00:00 15.3 13 Noroeste 24 Noroeste 0 -- -- 65
2020-01-28 21:00:00 15.9 15 Noroeste 32 Norte 0 -- -- 62
2020-01-28 20:00:00 16.1 19 Norte 31 Noroeste 0 -- -- 62
2020-01-28 19:00:00 16.7 23 Norte 42 Noroeste 0 -- -- 58
2020-01-28 18:00:00 17.3 27 Norte 43 Noroeste 0 -- -- 58
2020-01-28 17:00:00 18.6 24 Noroeste 42 Norte 0 -- -- 56
2020-01-28 16:00:00 19.8 23 Noroeste 34 Norte 0 -- -- 53
2020-01-28 15:00:00 20 19 Noroeste 35 Noroeste 0 -- -- 50
2020-01-28 14:00:00 18.5 14 Oeste 28 Noroeste 0 -- -- 56
2020-01-28 13:00:00 17 21 Noroeste 32 Noroeste 0 -- -- 59
2020-01-28 12:00:00 15.3 15 Noroeste 33 Noroeste 0 -- -- 63
2020-01-28 11:00:00 14.1 16 Noroeste 26 Noroeste 0 -- -- 65
2020-01-28 10:00:00 11.5 11 Oeste 19 Noroeste 0 -- -- 71
2020-01-28 09:00:00 10.4 12 Noroeste 23 Noroeste 0 -- -- 73
2020-01-28 08:00:00 10.5 15 Noroeste 27 Noroeste 0 -- -- 72
2020-01-28 07:00:00 9.6 13 Noroeste 22 Noroeste 0 -- -- 74
2020-01-28 06:00:00 7.5 10 Oeste 18 Noroeste 0 -- -- 80
2020-01-28 05:00:00 7.7 8 Oeste 23 Oeste 0 -- -- 78
2020-01-28 04:00:00 8.9 13 Oeste 22 Oeste 0 -- -- 73
2020-01-28 03:00:00 9.4 7 Oeste 27 Oeste 0 -- -- 71
2020-01-28 02:00:00 11 17 Oeste 24 Oeste 0 -- -- 64
2020-01-28 01:00:00 10.3 11 Oeste 19 Noroeste 0 -- -- 67
2020-01-28 00:00:00 10.9 9 Oeste 27 Noroeste 0 -- -- 64
2020-01-27 23:00:00 10.8 8 Oeste 21 Noroeste 0 -- -- 66
2020-01-27 22:00:00 12 15 Noroeste 30 Oeste 0 -- -- 59
2020-01-27 21:00:00 10.5 10 Oeste 17 Oeste 0 -- -- 68
2020-01-27 20:00:00 10.5 6 Oeste 12 Oeste 0 -- -- 71
2020-01-27 19:00:00 11.2 6 Noroeste 9 Oeste 0 -- -- 70
2020-01-27 18:00:00 14 6 Oeste 14 Oeste 0 -- -- 60
2020-01-27 17:00:00 15.5 9 Oeste 17 Oeste 0 -- -- 50
2020-01-27 16:00:00 15.6 8 Oeste 21 Oeste 0 -- -- 50
2020-01-27 15:00:00 15.6 10 Noroeste 22 Oeste 0 -- -- 46
2020-01-27 14:00:00 14.6 12 Noroeste 26 Oeste 0 -- -- 53
2020-01-27 13:00:00 13.5 13 Noroeste 24 Noroeste 0 -- -- 55
2020-01-27 12:00:00 11.9 16 Noroeste 32 Oeste 0 -- -- 61
2020-01-27 11:00:00 10 15 Noroeste 28 Noroeste 0 -- -- 69
2020-01-27 10:00:00 8 12 Noroeste 24 Noroeste 0 -- -- 78
2020-01-27 09:00:00 6.2 13 Noroeste 23 Noroeste 0 -- -- 84
2020-01-27 08:00:00 5.8 8 Noroeste 19 Noroeste 0 -- -- 85
2020-01-27 07:00:00 5.2 5 Noroeste 15 Noroeste 0 -- -- 88
2020-01-27 06:00:00 6.1 6 Norte 14 Noroeste 0 -- -- 85
2020-01-27 05:00:00 5.8 4 Oeste 23 Norte 0 -- -- 86
2020-01-27 04:00:00 6.9 9 Norte 21 Noroeste 0 -- -- 83
2020-01-27 03:00:00 6.7 6 Oeste 13 Noroeste 0 -- -- 84
2020-01-27 02:00:00 7.4 3 Norte 13 Noroeste 0 -- -- 79
2020-01-27 01:00:00 8.6 8 Oeste 19 Noroeste 0 -- -- 76
2020-01-27 00:00:00 7.5 8 Noroeste 15 Noroeste 0 -- -- 83
2020-01-26 23:00:00 8.3 10 Norte 17 Noroeste 0 -- -- 80
2020-01-26 22:00:00 8.1 5 Noroeste 10 Noroeste 0 -- -- 83
2020-01-26 21:00:00 9.4 8 Norte 13 Norte 0 -- -- 78
2020-01-26 20:00:00 10.5 9 Noroeste 14 Norte 0 -- -- 73
2020-01-26 19:00:00 11.8 9 Norte 15 Norte 0 -- -- 71
2020-01-26 18:00:00 13.7 8 Norte 19 Noroeste 0 -- -- 66
2020-01-26 17:00:00 14.4 11 Noroeste 27 Norte 0 -- -- 61
2020-01-26 16:00:00 15.3 19 Norte 37 Noroeste 0 -- -- 57
2020-01-26 15:00:00 15.5 19 Noroeste 39 Noroeste 0 -- -- 55
2020-01-26 14:00:00 15.4 21 Noroeste 36 Noroeste 0 -- -- 56
2020-01-26 13:00:00 14.5 19 Noroeste 37 Noroeste 0 -- -- 64
2020-01-26 12:00:00 13.4 14 Noroeste 32 Oeste 0 -- -- 70
2020-01-26 11:00:00 11.6 17 Oeste 28 Noroeste 0 -- -- 77
2020-01-26 10:00:00 9.4 13 Noroeste 24 Noroeste 0 -- -- 89
2020-01-26 09:00:00 7.5 10 Norte 19 Noroeste 0 -- -- 96
2020-01-26 08:00:00 6.9 9 Noroeste 14 Noroeste 0 -- -- 99
2020-01-26 07:00:00 6.9 7 Noroeste 13 Noroeste 0.2 -- -- 99
2020-01-26 06:00:00 7.3 2 Sur 12 Noroeste 0 -- -- 99
2020-01-26 05:00:00 7.8 6 Noroeste 13 Norte 0 -- -- 100
2020-01-26 04:00:00 8 8 Noroeste 14 Noroeste 0 -- -- 100
2020-01-26 03:00:00 7.6 5 Noroeste 8 Norte 0 -- -- 99
2020-01-26 02:00:00 7.4 6 Norte 8 Norte 0 -- -- 99
2020-01-26 01:00:00 8.1 4 Norte 6 Norte 0 -- -- 97
2020-01-26 00:00:00 9.1 3 Norte -- -- 0 -- -- 98
2020-01-25 23:00:00 9 4 Norte 6 Norte 0 -- -- 97
2020-01-25 22:00:00 9.7 3 Norte 4 Noroeste 0 -- -- 96
2020-01-25 21:00:00 10.4 2 Sudoeste 9 Este 0 -- -- 93
2020-01-25 20:00:00 11.2 7 Este 10 Este 0 -- -- 94
2020-01-25 19:00:00 11.6 2 Nordeste 7 Norte 1 -- -- 91
2020-01-25 18:00:00 12.4 2 Norte 9 Oeste 0 -- -- 85
2020-01-25 17:00:00 13 0 Calma 7 Noroeste 0 -- -- 84
2020-01-25 16:00:00 12.7 4 Norte 9 Noroeste 0 -- -- 85
2020-01-25 15:00:00 12.5 5 Noroeste 15 Noroeste 0 -- -- 86
2020-01-25 14:00:00 13.1 9 Noroeste 13 Noroeste 0 -- -- 81
2020-01-25 13:00:00 13.7 5 Oeste 10 Sudoeste 0 -- -- 82
2020-01-25 12:00:00 12 0 Calma 11 Este 0 -- -- 88
2020-01-25 11:00:00 10.6 0 Calma 14 Norte 0 -- -- 94
2020-01-25 10:00:00 9.7 4 Norte 9 Norte 0 -- -- 99
2020-01-25 09:00:00 8.7 2 Norte 5 Norte 0 -- -- 98
2020-01-25 08:00:00 8.7 0 Calma 4 Noroeste 0 -- -- 97
2020-01-25 07:00:00 8.7 3 Norte 8 Norte 0 -- -- 97
2020-01-25 06:00:00 9.2 3 Noroeste 5 Noroeste 0 -- -- 97
2020-01-25 05:00:00 9.4 0 Calma 5 Norte 0 -- -- 97
2020-01-25 04:00:00 9.5 0 Calma 6 Nordeste 0 -- -- 97
2020-01-25 03:00:00 9.4 0 Calma 5 Norte 0 -- -- 96
2020-01-25 02:00:00 9.9 3 Sudeste 6 Sudeste 0 -- -- 95
2020-01-25 01:00:00 10.5 0 Calma 5 Nordeste 0 -- -- 95
2020-01-25 00:00:00 10.7 0 Calma 6 Este 0 -- -- 94
2020-01-24 23:00:00 10.8 4 Este 9 Este 0 -- -- 94
2020-01-24 22:00:00 10.8 0 Calma 4 Oeste 0 -- -- 94
2020-01-24 21:00:00 10.8 0 Calma 7 Nordeste 0 -- -- 92
2020-01-24 20:00:00 11 3 Oeste 9 Este 0 -- -- 91
2020-01-24 19:00:00 11.3 0 Calma 9 Norte 0 -- -- 88
2020-01-24 18:00:00 11.7 8 Norte 13 Norte 0 -- -- 83
2020-01-24 17:00:00 12.8 5 Norte 13 Noroeste 0 -- -- 82
2020-01-24 16:00:00 13.6 4 Norte 12 Norte 0 -- -- 79
2020-01-24 15:00:00 12.8 0 Calma 21 Norte 0 -- -- 81
2020-01-24 14:00:00 11.4 14 Norte 20 Norte 0 -- -- 82
2020-01-24 13:00:00 12.1 3 Norte 11 Norte 0 -- -- 83
2020-01-24 12:00:00 10.6 4 Nordeste 15 Norte 0 -- -- 89
2020-01-24 11:00:00 9.7 7 Norte 11 Norte 0 -- -- 90
2020-01-24 10:00:00 9 6 Norte 15 Norte 0 -- -- 91
2020-01-24 09:00:00 8.3 10 Norte 15 Norte 0 -- -- 92
2020-01-24 08:00:00 8.1 7 Norte 17 Norte 0 -- -- 94
2020-01-24 07:00:00 8.4 5 Norte 8 Norte 0 -- -- 97
2020-01-24 06:00:00 8.1 3 Sudoeste 6 Oeste 0 -- -- 98
2020-01-24 05:00:00 8 0 Calma 4 Norte 0 -- -- 97
2020-01-24 04:00:00 8 0 Calma 5 Norte 0 -- -- 96
2020-01-24 03:00:00 8.3 5 Nordeste 5 Nordeste 0 -- -- 97
2020-01-24 02:00:00 8.2 0 Calma 5 Este 0 -- -- 97
2020-01-24 01:00:00 8.6 3 Este 9 Este 0 -- -- 97
2020-01-24 00:00:00 8.5 0 Calma 5 Este 0 -- -- 97
2020-01-23 23:00:00 8.5 2 Sudeste 5 Sur 0 -- -- 96
2020-01-23 22:00:00 9.3 3 Este 10 Este 0 -- -- 96
2020-01-23 21:00:00 9.8 5 Sudeste 14 Este 0 -- -- 95
2020-01-23 20:00:00 10.7 8 Este 16 Este 0 -- -- 95
2020-01-23 19:00:00 11.3 8 Este 25 Sudeste 0 -- -- 94
2020-01-23 18:00:00 12.3 13 Sudeste 23 Este 0 -- -- 89
2020-01-23 17:00:00 13 15 Sudeste 24 Este 0 -- -- 86
2020-01-23 16:00:00 13.9 13 Este 24 Sudeste 0 -- -- 83
2020-01-23 15:00:00 14.8 11 Sur 18 Sur 0 -- -- 72
2020-01-23 14:00:00 13.9 11 Sudeste 18 Este 0 -- -- 81
2020-01-23 13:00:00 13.2 10 Sudeste 18 Este 0 -- -- 84
2020-01-23 12:00:00 11.4 4 Sudeste 10 Sudeste 0 -- -- 89
2020-01-23 11:00:00 9.8 4 Sudeste 10 Sudeste 0 -- -- 97
2020-01-23 10:00:00 7.9 0 Calma 3 Sudoeste 0 -- -- 100
2020-01-23 09:00:00 6.6 2 Oeste 7 Sudoeste 0 -- -- 98
2020-01-23 08:00:00 6.7 3 Noroeste 8 Norte 0 -- -- 99
2020-01-23 07:00:00 6.3 3 Noroeste 8 Sudoeste 0 -- -- 99
2020-01-23 06:00:00 5.7 4 Noroeste 8 Noroeste 0 -- -- 99
2020-01-23 05:00:00 5.9 3 Oeste 7 Noroeste 0 -- -- 97
2020-01-23 04:00:00 6.2 3 Noroeste 7 Noroeste 0 -- -- 97
2020-01-23 03:00:00 6.6 2 Oeste 6 Sudoeste 0 -- -- 97
2020-01-23 02:00:00 6.1 2 Noroeste 5 Noroeste 0 -- -- 96
2020-01-23 01:00:00 6.5 0 Calma 9 Norte 0 -- -- 95
2020-01-23 00:00:00 6.6 2 Noroeste 6 Norte 0 -- -- 94
2020-01-22 23:00:00 7.4 3 Noroeste 5 Noroeste 0 -- -- 92
2020-01-22 22:00:00 8.2 3 Noroeste 8 Noroeste 0 -- -- 91
2020-01-22 21:00:00 8.9 5 Noroeste 12 Norte 0 -- -- 91
2020-01-22 20:00:00 9.7 6 Norte 12 Norte 0 -- -- 87
2020-01-22 19:00:00 11.5 10 Norte 15 Norte 0 -- -- 81
2020-01-22 18:00:00 12.4 10 Norte 13 Norte 0 -- -- 80
2020-01-22 17:00:00 14 0 Calma 11 Sur 0 -- -- 74
2020-01-22 16:00:00 14.4 6 Sur 17 Este 0 -- -- 71
2020-01-22 15:00:00 15 8 Sudeste 18 Este 0 -- -- 68
2020-01-22 14:00:00 13.9 4 Sudeste 15 Este 0 -- -- 70
2020-01-22 13:00:00 12.2 0 Calma 8 Nordeste 0 -- -- 81
2020-01-22 12:00:00 11 3 Norte 14 Noroeste 0 -- -- 86
2020-01-22 11:00:00 9.9 4 Sudoeste 12 Sudoeste 0 -- -- 100
2020-01-22 10:00:00 8.5 3 Sudoeste 6 Este 0 -- -- 100
2020-01-22 09:00:00 7.2 3 Este 13 Este 0 -- -- 99
2020-01-22 08:00:00 7.1 4 Este 7 Este 0 -- -- 99
2020-01-22 07:00:00 7.9 4 Nordeste 7 Este 0 -- -- 100
2020-01-22 06:00:00 7.6 4 Este 8 Nordeste 0 -- -- 99
2020-01-22 05:00:00 7.9 4 Norte 7 Sudoeste 0 -- -- 99
2020-01-22 04:00:00 8.5 4 Sudoeste 9 Este 0.2 -- -- 99
2020-01-22 03:00:00 8.4 2 Norte 5 Norte 2.8 -- -- 99
2020-01-22 02:00:00 8.3 0 Calma 13 Norte 1.8 -- -- 99
2020-01-22 01:00:00 8.4 4 Noroeste 19 Oeste 2 -- -- 98
2020-01-22 00:00:00 8.7 6 Sudeste 9 Sudeste 0.4 -- -- 98
2020-01-21 23:00:00 8.7 3 Este 6 Nordeste 0 -- -- 98
2020-01-21 22:00:00 8.4 0 Calma 7 Este 0.2 -- -- 98
2020-01-21 21:00:00 8.4 2 Nordeste 6 Nordeste 0.6 -- -- 97
2020-01-21 20:00:00 8.2 4 Nordeste 7 Nordeste 0 -- -- 97
2020-01-21 19:00:00 8.6 6 Norte 9 Norte 0 -- -- 95
2020-01-21 18:00:00 9.1 4 Noroeste 12 Noroeste 0 -- -- 94
2020-01-21 17:00:00 9.5 7 Oeste 14 Oeste 0 -- -- 94
2020-01-21 16:00:00 10 10 Oeste 18 Noroeste 0 -- -- 95
2020-01-21 15:00:00 9.4 12 Noroeste 23 Noroeste 0 -- -- 98
2020-01-21 14:00:00 8.6 9 Noroeste 22 Noroeste 2.2 -- -- 99
2020-01-21 13:00:00 7.8 15 Norte 28 Norte 4.8 -- -- 99
2020-01-21 12:00:00 7.1 22 Norte 32 Norte 6.2 -- -- 99
2020-01-21 11:00:00 7.2 13 Oeste 31 Noroeste 8 -- -- 98
2020-01-21 10:00:00 7.5 10 Noroeste 28 Noroeste 2.8 -- -- 98
2020-01-21 09:00:00 7.4 11 Noroeste 27 Noroeste 8.4 -- -- 97
2020-01-21 08:00:00 7.7 6 Norte 28 Norte 4.4 -- -- 95
2020-01-21 07:00:00 7.8 13 Nordeste 31 Nordeste 2.8 -- -- 96
2020-01-21 06:00:00 7.4 19 Nordeste 42 Este 4.6 -- -- 94
2020-01-21 05:00:00 8.1 24 Nordeste 48 Nordeste 0.8 -- -- 88
2020-01-21 04:00:00 7.9 23 Nordeste 48 Nordeste 1.8 -- -- 89
2020-01-21 03:00:00 8.3 19 Nordeste 32 Nordeste 2.8 -- -- 89
2020-01-21 02:00:00 7.7 4 Norte 21 Nordeste 0.2 -- -- 90
2020-01-21 01:00:00 7.7 3 Nordeste 19 Nordeste 0 -- -- 91
2020-01-21 00:00:00 7.5 8 Nordeste 14 Nordeste 0 -- -- 95
2020-01-20 23:00:00 7.4 9 Nordeste 21 Nordeste 1.6 -- -- 95
2020-01-20 22:00:00 7.3 13 Norte 20 Norte 0.8 -- -- 95
2020-01-20 21:00:00 7 8 Nordeste 18 Nordeste 0 -- -- 95
2020-01-20 20:00:00 6.5 6 Nordeste 25 Nordeste 2 -- -- 94
2020-01-20 19:00:00 6.9 13 Nordeste 32 Este 3 -- -- 91
2020-01-20 18:00:00 7.8 15 Este 40 Nordeste 0 -- -- 80
2020-01-20 17:00:00 7.9 23 Nordeste 39 Nordeste 0.2 -- -- 80
2020-01-20 16:00:00 8.1 23 Nordeste 36 Nordeste 0.2 -- -- 82
2020-01-20 15:00:00 7.5 9 Nordeste 26 Nordeste 1.2 -- -- 89
2020-01-20 14:00:00 8.3 9 Nordeste 26 Este 0.4 -- -- 82
2020-01-20 13:00:00 7.9 13 Este 37 Este 0 -- -- 77
2020-01-20 12:00:00 6.9 16 Este 33 Nordeste 0.2 -- -- 81
2020-01-20 11:00:00 6 15 Este 42 Nordeste 0.4 -- -- 88
2020-01-20 10:00:00 5.3 22 Nordeste 40 Nordeste 1.6 -- -- 86
2020-01-20 09:00:00 5.3 13 Nordeste 41 Nordeste 0.8 -- -- 85
2020-01-20 08:00:00 6.4 23 Nordeste 49 Nordeste 0 -- -- 74
2020-01-20 07:00:00 6.2 26 Nordeste 54 Nordeste 0 -- -- 70
2020-01-20 06:00:00 6.5 33 Nordeste 59 Nordeste 0 -- -- 67
2020-01-20 05:00:00 6.5 28 Nordeste 56 Nordeste 0 -- -- 69
2020-01-20 04:00:00 6.9 24 Nordeste 53 Nordeste 0 -- -- 71
2020-01-20 03:00:00 7 26 Nordeste 53 Nordeste 0 -- -- 71
2020-01-20 02:00:00 7.4 26 Nordeste 55 Nordeste 0 -- -- 71
2020-01-20 01:00:00 7.9 28 Nordeste 47 Nordeste 0 -- -- 71
2020-01-20 00:00:00 7.9 28 Nordeste 48 Norte 0 -- -- 72
2020-01-19 23:00:00 7.8 21 Nordeste 55 Nordeste 0 -- -- 71
2020-01-19 22:00:00 7.7 24 Nordeste 43 Nordeste 0 -- -- 73
2020-01-19 21:00:00 7.5 23 Nordeste 48 Nordeste 0 -- -- 75
2020-01-19 20:00:00 6.5 23 Nordeste 57 Nordeste 3 -- -- 83
2020-01-19 19:00:00 6.2 29 Nordeste 72 Nordeste 0.2 -- -- 83
2020-01-19 18:00:00 7.5 46 Nordeste 72 Nordeste 0 -- -- 66
2020-01-19 17:00:00 8.1 38 Nordeste 68 Nordeste 0 -- -- 64
2020-01-19 16:00:00 9.3 25 Nordeste 47 Norte 0 -- -- 62
2020-01-19 15:00:00 10.6 15 Norte 26 Noroeste 0 -- -- 66
2020-01-19 14:00:00 11.8 14 Norte 33 Norte 0 -- -- 60
2020-01-19 13:00:00 12.3 16 Norte 26 Norte 0 -- -- 63
2020-01-19 12:00:00 11.5 16 Norte 33 Norte 0 -- -- 63
2020-01-19 11:00:00 10.5 13 Noroeste 31 Noroeste 0 -- -- 69
2020-01-19 10:00:00 10 12 Noroeste 30 Noroeste 0 -- -- 72
2020-01-19 09:00:00 9.7 17 Noroeste 38 Noroeste 0 -- -- 72
2020-01-19 08:00:00 8.9 24 Noroeste 40 Noroeste 0 -- -- 73
2020-01-19 07:00:00 9.3 10 Norte 37 Noroeste 0 -- -- 72
2020-01-19 06:00:00 10.5 10 Oeste 46 Norte 0 -- -- 75
2020-01-19 05:00:00 10.2 36 Norte 61 Noroeste 0 -- -- 76
2020-01-19 04:00:00 8.1 6 Norte 26 Noroeste 0 -- -- 89
2020-01-19 03:00:00 6.6 7 Noroeste 14 Noroeste 0 -- -- 93
2020-01-19 02:00:00 6.7 3 Noroeste 8 Noroeste 0 -- -- 91
2020-01-19 01:00:00 6.7 8 Norte 12 Noroeste 0 -- -- 92
2020-01-19 00:00:00 6.5 3 Norte 12 Norte 0 -- -- 91
2020-01-18 23:00:00 6.8 6 Noroeste 8 Noroeste 0 -- -- 88
2020-01-18 22:00:00 7.8 0 Calma 5 Norte 0 -- -- 87
2020-01-18 21:00:00 8.3 4 Noroeste 8 Norte 0 -- -- 85
2020-01-18 20:00:00 9.5 4 Noroeste 9 Noroeste 0 -- -- 83
2020-01-18 19:00:00 11.3 5 Oeste 13 Sudoeste 0 -- -- 76
2020-01-18 18:00:00 13.1 6 Oeste 17 Sudoeste 0 -- -- 68
2020-01-18 17:00:00 14.1 4 Oeste 9 Oeste 0 -- -- 66
2020-01-18 16:00:00 13.8 3 Sudoeste 13 Oeste 0 -- -- 66
2020-01-18 15:00:00 13.1 6 Oeste 18 Oeste 0 -- -- 67
2020-01-18 14:00:00 13.1 11 Oeste 17 Oeste 0 -- -- 67
2020-01-18 13:00:00 11.8 5 Oeste 9 Sudoeste 0 -- -- 75
2020-01-18 12:00:00 10.1 5 Oeste 19 Oeste 0 -- -- 80
2020-01-18 11:00:00 10.1 9 Oeste 24 Oeste 0 -- -- 73
2020-01-18 10:00:00 9.5 9 Norte 18 Norte 0 -- -- 74
2020-01-18 09:00:00 8.4 8 Noroeste 15 Norte 0 -- -- 77
2020-01-18 08:00:00 8.4 14 Norte 19 Norte 0 -- -- 77
2020-01-18 07:00:00 7.6 3 Oeste 10 Noroeste 0 -- -- 80
2020-01-18 06:00:00 7.8 3 Noroeste 7 Oeste 0 -- -- 79
2020-01-18 05:00:00 8.7 5 Noroeste 15 Noroeste 0 -- -- 74
2020-01-18 04:00:00 9 4 Noroeste 15 Oeste 0 -- -- 73
2020-01-18 03:00:00 10.4 8 Oeste 15 Noroeste 0 -- -- 67
2020-01-18 02:00:00 10.7 6 Noroeste 21 Noroeste 0 -- -- 66
2020-01-18 01:00:00 10.5 7 Noroeste 11 Noroeste 0 -- -- 68
2020-01-18 00:00:00 10.7 4 Oeste 12 Oeste 0 -- -- 67
2020-01-17 23:00:00 11 5 Oeste 19 Norte 0 -- -- 65
2020-01-17 22:00:00 11 13 Norte 19 Norte 0 -- -- 65
2020-01-17 21:00:00 12.7 15 Norte 18 Norte 0 -- -- 58
2020-01-17 20:00:00 13.1 9 Norte 21 Noroeste 0 -- -- 57
2020-01-17 19:00:00 15.5 14 Noroeste 33 Norte 0 -- -- 50
2020-01-17 18:00:00 15.8 14 Norte 29 Norte 0 -- -- 51
2020-01-17 17:00:00 16.7 18 Norte 39 Noroeste 0 -- -- 48
2020-01-17 16:00:00 17.9 25 Noroeste 37 Noroeste 0 -- -- 44
2020-01-17 15:00:00 18.5 21 Noroeste 35 Noroeste 0 -- -- 44
2020-01-17 14:00:00 17.8 18 Noroeste 35 Noroeste 0 -- -- 44
2020-01-17 13:00:00 16.5 16 Noroeste 30 Noroeste 0 -- -- 44
2020-01-17 12:00:00 15.1 15 Noroeste 23 Noroeste 0 -- -- 49
2020-01-17 11:00:00 10.7 3 Oeste 10 Noroeste 0 -- -- 68
2020-01-17 10:00:00 7.8 3 Norte 7 Noroeste 0 -- -- 71
2020-01-17 09:00:00 6.6 2 Norte 12 Norte 0 -- -- 71
2020-01-17 08:00:00 6.8 5 Oeste 10 Oeste 0 -- -- 73
2020-01-17 07:00:00 6.9 6 Noroeste 15 Noroeste 0 -- -- 70
2020-01-17 06:00:00 7.7 6 Noroeste 22 Noroeste 0 -- -- 67
2020-01-17 05:00:00 7.6 12 Noroeste 23 Noroeste 0 -- -- 69
2020-01-17 04:00:00 7.5 3 Noroeste 21 Oeste 0 -- -- 72
2020-01-17 03:00:00 8.3 10 Noroeste 23 Noroeste 0 -- -- 71
2020-01-17 02:00:00 7.5 8 Noroeste 17 Noroeste 0 -- -- 76
2020-01-17 01:00:00 5.5 4 Oeste 6 Oeste 0 -- -- 87
2020-01-17 00:00:00 5.4 5 Noroeste 9 Noroeste 0 -- -- 86
2020-01-16 23:00:00 5.7 5 Noroeste 8 Noroeste 0 -- -- 83
2020-01-16 22:00:00 7 3 Noroeste 6 Norte 0 -- -- 80
2020-01-16 21:00:00 7.3 5 Norte 7 Noroeste 0 -- -- 79
2020-01-16 20:00:00 9 4 Noroeste 9 Norte 0 -- -- 73
2020-01-16 19:00:00 11.9 3 Noroeste 6 Sur 0 -- -- 62
2020-01-16 18:00:00 15.7 3 Sur 6 Sur 0 -- -- 48
2020-01-16 17:00:00 18 3 Sur 8 Sudoeste 0 -- -- 44
2020-01-16 16:00:00 18.4 4 Sur 12 Sudoeste 0 -- -- 45
2020-01-16 15:00:00 17.8 4 Oeste 11 Sur 0 -- -- 46
2020-01-16 14:00:00 17.4 5 Sudeste 9 Sudeste 0 -- -- 46
2020-01-16 13:00:00 14.9 3 Noroeste 17 Noroeste 0 -- -- 50
2020-01-16 12:00:00 13 9 Noroeste 23 Noroeste 0 -- -- 53
2020-01-16 11:00:00 11 11 Noroeste 17 Noroeste 0 -- -- 58
2020-01-16 10:00:00 9.2 11 Noroeste 19 Norte 0 -- -- 63
2020-01-16 09:00:00 7.1 9 Noroeste 18 Noroeste 0 -- -- 69
2020-01-16 08:00:00 7.4 10 Noroeste 27 Noroeste 0 -- -- 67
2020-01-16 07:00:00 7.6 14 Noroeste 26 Noroeste 0 -- -- 68
2020-01-16 06:00:00 7.7 14 Noroeste 24 Noroeste 0 -- -- 68
2020-01-16 05:00:00 7.9 14 Noroeste 31 Noroeste 0 -- -- 68
2020-01-16 04:00:00 7.6 13 Noroeste 26 Noroeste 0 -- -- 71
2020-01-16 03:00:00 7.9 8 Oeste 20 Noroeste 0 -- -- 69
2020-01-16 02:00:00 7 11 Noroeste 18 Noroeste 0 -- -- 74
2020-01-16 01:00:00 5 4 Oeste 10 Oeste 0 -- -- 83
2020-01-16 00:00:00 5.5 4 Oeste 11 Noroeste 0 -- -- 84
2020-01-15 23:00:00 5.7 8 Norte 11 Noroeste 0 -- -- 82
2020-01-15 22:00:00 6.5 5 Norte 10 Norte 0 -- -- 80
2020-01-15 21:00:00 7.9 5 Norte 8 Noroeste 0 -- -- 74
2020-01-15 20:00:00 9.7 6 Noroeste 10 Noroeste 0 -- -- 70
2020-01-15 19:00:00 11 4 Noroeste 6 Noroeste 0 -- -- 64
2020-01-15 18:00:00 14.8 3 Noroeste 7 Oeste 0 -- -- 55
2020-01-15 17:00:00 16.7 4 Oeste 8 Oeste 0 -- -- 46
2020-01-15 16:00:00 16.7 5 Oeste 12 Sudoeste 0 -- -- 44
2020-01-15 15:00:00 16.1 7 Oeste 15 Oeste 0 -- -- 46
2020-01-15 14:00:00 14.2 8 Oeste 17 Oeste 0 -- -- 47
2020-01-15 13:00:00 13.4 8 Noroeste 18 Noroeste 0 -- -- 49
2020-01-15 12:00:00 11.5 12 Noroeste 19 Noroeste 0 -- -- 56
2020-01-15 11:00:00 9.3 5 Noroeste 20 Noroeste 0 -- -- 63
2020-01-15 10:00:00 7.6 10 Noroeste 29 Noroeste 0 -- -- 65
2020-01-15 09:00:00 5.7 8 Noroeste 22 Noroeste 0 -- -- 70
2020-01-15 08:00:00 5.4 11 Noroeste 21 Noroeste 0 -- -- 72
2020-01-15 07:00:00 5.1 11 Norte 21 Noroeste 0 -- -- 73
2020-01-15 06:00:00 5.1 11 Noroeste 19 Noroeste 0 -- -- 72
2020-01-15 05:00:00 4.3 6 Noroeste 14 Noroeste 0 -- -- 76
2020-01-15 04:00:00 4.3 2 Oeste 13 Noroeste 0 -- -- 76
2020-01-15 03:00:00 4.1 0 Calma 5 Nordeste 0 -- -- 76
2020-01-15 02:00:00 5.2 2 Noroeste 14 Noroeste 0 -- -- 73
2020-01-15 01:00:00 5.2 3 Noroeste 13 Norte 0 -- -- 74
2020-01-15 00:00:00 5.3 9 Norte 13 Norte 0 -- -- 74
2020-01-14 23:00:00 5.2 3 Noroeste 8 Noroeste 0 -- -- 73
2020-01-14 22:00:00 4.2 4 Norte 7 Noroeste 0 -- -- 78
2020-01-14 21:00:00 4.9 6 Noroeste 7 Noroeste 0 -- -- 73
2020-01-14 20:00:00 6.4 5 Noroeste 9 Norte 0 -- -- 68
2020-01-14 19:00:00 8.5 6 Noroeste 9 Noroeste 0 -- -- 60
2020-01-14 18:00:00 12.4 4 Oeste 8 Oeste 0 -- -- 47
2020-01-14 17:00:00 15.3 6 Oeste 12 Sudoeste 0 -- -- 39
2020-01-14 16:00:00 15.9 5 Sudoeste 15 Sudoeste 0 -- -- 38
2020-01-14 15:00:00 15.3 9 Oeste 21 Oeste 0 -- -- 37
2020-01-14 14:00:00 13.9 8 Noroeste 21 Oeste 0 -- -- 46
2020-01-14 13:00:00 12.6 12 Noroeste 20 Oeste 0 -- -- 47
2020-01-14 12:00:00 10.4 12 Noroeste 30 Noroeste 0 -- -- 50
2020-01-14 11:00:00 8.6 13 Noroeste 33 Noroeste 0 -- -- 57
2020-01-14 10:00:00 6.4 21 Noroeste 31 Noroeste 0 -- -- 59
2020-01-14 09:00:00 5.1 18 Noroeste 31 Noroeste 0 -- -- 63
2020-01-14 08:00:00 4.6 10 Noroeste 26 Noroeste 0 -- -- 65
2020-01-14 07:00:00 5.8 16 Noroeste 29 Noroeste 0 -- -- 61
2020-01-14 06:00:00 5.2 15 Noroeste 23 Noroeste 0 -- -- 65
2020-01-14 05:00:00 -- 5 Noroeste 14 Noroeste 0 -- -- --
2020-01-14 04:00:00 5.5 10 Noroeste 24 Noroeste 0 -- -- 68
2020-01-14 03:00:00 5.8 12 Noroeste 22 Noroeste 0 -- -- 68
2020-01-14 02:00:00 4.7 12 Noroeste 17 Noroeste 0 -- -- 78
2020-01-14 01:00:00 5 8 Noroeste 13 Norte 0 -- -- 76
2020-01-14 00:00:00 5.3 4 Oeste 12 Noroeste 0 -- -- 75
2020-01-13 23:00:00 5.3 3 Noroeste 10 Noroeste 0 -- -- 80
2020-01-13 22:00:00 5.7 7 Noroeste 9 Noroeste 0 -- -- 85
2020-01-13 21:00:00 5.8 3 Norte 6 Noroeste 0 -- -- 81
2020-01-13 20:00:00 7 3 Noroeste 5 Noroeste 0 -- -- 76
2020-01-13 19:00:00 8.4 4 Norte 6 Norte 0 -- -- 71
2020-01-13 18:00:00 11.4 4 Norte 6 Norte 0 -- -- 63
2020-01-13 17:00:00 13.6 2 Oeste 13 Sudoeste 0 -- -- 49
2020-01-13 16:00:00 14.1 7 Oeste 15 Sudoeste 0 -- -- 46
2020-01-13 15:00:00 14.2 6 Oeste 12 Oeste 0 -- -- 45
2020-01-13 14:00:00 13.1 8 Oeste 16 Oeste 0 -- -- 45
2020-01-13 13:00:00 11.7 12 Oeste 19 Oeste 0 -- -- 48
2020-01-13 12:00:00 8.9 11 Noroeste 23 Noroeste 0 -- -- 59
2020-01-13 11:00:00 6.9 11 Noroeste 22 Noroeste 0 -- -- 67
2020-01-13 10:00:00 4.5 6 Noroeste 17 Noroeste 0 -- -- 79
2020-01-13 09:00:00 1.5 2 Noroeste 11 Noroeste 0 -- -- 93
2020-01-13 08:00:00 1.2 5 Noroeste 16 Noroeste 0 -- -- 91
2020-01-13 07:00:00 2.3 6 Noroeste 13 Noroeste 0 -- -- 94
2020-01-13 06:00:00 2.8 6 Noroeste 21 Noroeste 0 -- -- 92
2020-01-13 05:00:00 2.6 9 Norte 13 Norte 0 -- -- 95
2020-01-13 04:00:00 3.5 6 Noroeste 10 Noroeste 0 -- -- 96
2020-01-13 03:00:00 3.2 4 Oeste 8 Sudoeste 0 -- -- 96
2020-01-13 02:00:00 3.4 5 Noroeste 11 Norte 0 -- -- 95
2020-01-13 01:00:00 3.5 5 Norte 8 Noroeste 0 -- -- 94
2020-01-13 00:00:00 4.1 5 Norte 9 Norte 0 -- -- 93
2020-01-12 23:00:00 5 6 Noroeste 8 Noroeste 0 -- -- 90
2020-01-12 22:00:00 6.9 0 Calma 7 Nordeste 0 -- -- 90
2020-01-12 21:00:00 8.4 5 Este 13 Este 0 -- -- 91
2020-01-12 20:00:00 8.7 9 Este 15 Este 0 -- -- 88
2020-01-12 19:00:00 9.6 4 Nordeste 14 Sudeste 0 -- -- 82
2020-01-12 18:00:00 11.9 7 Este 24 Este 0 -- -- 72
2020-01-12 17:00:00 14 15 Este 26 Este 0 -- -- 61
2020-01-12 16:00:00 16.2 6 Este 15 Sudeste 0 -- -- 37
2020-01-12 15:00:00 16 5 Este 19 Norte 0 -- -- 30
2020-01-12 14:00:00 15.2 13 Noroeste 24 Noroeste 0 -- -- 40
2020-01-12 13:00:00 13.3 14 Noroeste 25 Noroeste 0 -- -- 44
2020-01-12 12:00:00 11.5 14 Oeste 29 Noroeste 0 -- -- 50
2020-01-12 11:00:00 8.9 13 Noroeste 32 Noroeste 0 -- -- 58
2020-01-12 10:00:00 7.1 21 Noroeste 36 Noroeste 0 -- -- 62
2020-01-12 09:00:00 5.3 21 Noroeste 35 Noroeste 0 -- -- 69
2020-01-12 08:00:00 4.9 19 Noroeste 31 Noroeste 0 -- -- 72
2020-01-12 07:00:00 5 20 Noroeste 34 Noroeste 0 -- -- 72
2020-01-12 06:00:00 4.9 18 Noroeste 25 Noroeste 0 -- -- 75
2020-01-12 05:00:00 5 8 Norte 18 Noroeste 0 -- -- 76
2020-01-12 04:00:00 3.8 6 Noroeste 17 Noroeste 0 -- -- 87
2020-01-12 03:00:00 3.3 0 Calma 8 Noroeste 0 -- -- 91
2020-01-12 02:00:00 4.3 6 Norte 11 Norte 0 -- -- 90
2020-01-12 01:00:00 4.9 5 Noroeste 9 Noroeste 0 -- -- 94
2020-01-12 00:00:00 4.5 5 Noroeste 10 Norte 0 -- -- 93
2020-01-11 23:00:00 4.6 7 Norte 8 Norte 0 -- -- 91
2020-01-11 22:00:00 6.4 3 Norte 6 Noroeste 0 -- -- 87
2020-01-11 21:00:00 7.3 3 Noroeste 5 Nordeste 0 -- -- 84
2020-01-11 20:00:00 9 4 Nordeste 8 Este 0 -- -- 79
2020-01-11 19:00:00 10.4 4 Este 14 Sudeste 0 -- -- 72
2020-01-11 18:00:00 13.2 12 Sudeste 21 Sudeste 0 -- -- 58
2020-01-11 17:00:00 15.3 4 Sur 16 Este 0 -- -- 45
2020-01-11 16:00:00 15.7 4 Oeste 21 Oeste 0 -- -- 44
2020-01-11 15:00:00 15.5 8 Noroeste 15 Oeste 0 -- -- 45
2020-01-11 14:00:00 14.7 6 Norte 19 Noroeste 0 -- -- 49
2020-01-11 13:00:00 13.6 10 Noroeste 20 Noroeste 0 -- -- 51
2020-01-11 12:00:00 12.4 12 Noroeste 20 Noroeste 0 -- -- 56
2020-01-11 11:00:00 10.5 12 Noroeste 18 Noroeste 0 -- -- 63
2020-01-11 10:00:00 8.8 10 Norte 18 Norte 0 -- -- 69
2020-01-11 09:00:00 7.2 11 Norte 20 Norte 0 -- -- 73
2020-01-11 08:00:00 7.2 13 Norte 19 Norte 0 -- -- 71
2020-01-11 07:00:00 7.8 9 Norte 19 Norte 0 -- -- 71
2020-01-11 06:00:00 8.7 14 Norte 22 Norte 0 -- -- 67
2020-01-11 05:00:00 9.1 12 Norte 21 Noroeste 0 -- -- 69
2020-01-11 04:00:00 9.3 15 Norte 22 Noroeste 0 -- -- 70
2020-01-11 03:00:00 10.5 6 Norte 20 Nordeste 0 -- -- 67
2020-01-11 02:00:00 11 12 Nordeste 24 Nordeste 0 -- -- 66
2020-01-11 01:00:00 11 12 Norte 37 Norte 0 -- -- 65
2020-01-11 00:00:00 10.9 15 Norte 37 Nordeste 0 -- -- 64
2020-01-10 23:00:00 10.9 21 Nordeste 38 Nordeste 0 -- -- 63
2020-01-10 22:00:00 11 11 Nordeste 37 Nordeste 0 -- -- 64
2020-01-10 21:00:00 11.3 17 Nordeste 41 Nordeste 0 -- -- 62
2020-01-10 20:00:00 11.3 18 Nordeste 32 Nordeste 0 -- -- 61
2020-01-10 19:00:00 12 15 Nordeste 34 Nordeste 0 -- -- 55
2020-01-10 18:00:00 13.2 10 Norte 24 Norte 0 -- -- 47
2020-01-10 17:00:00 14.7 14 Nordeste 25 Nordeste 0 -- -- 44
2020-01-10 16:00:00 15.6 21 Nordeste 31 Nordeste 0 -- -- 44
2020-01-10 15:00:00 15.6 10 Noroeste 27 Noroeste 0 -- -- 53
2020-01-10 14:00:00 15.3 13 Noroeste 24 Noroeste 0 -- -- 54
2020-01-10 13:00:00 14.4 15 Noroeste 25 Noroeste 0 -- -- 60
2020-01-10 12:00:00 12.3 6 Noroeste 11 Noroeste 0 -- -- 68
2020-01-10 11:00:00 11.8 5 Noroeste 26 Norte 0 -- -- 69
2020-01-10 10:00:00 10.2 8 Noroeste 21 Noroeste 0 -- -- 75
2020-01-10 09:00:00 9.3 10 Noroeste 20 Noroeste 0 -- -- 77
2020-01-10 08:00:00 7.3 10 Noroeste 22 Oeste 0 -- -- 86
2020-01-10 07:00:00 6.9 8 Sur 24 Oeste 0 -- -- 89
2020-01-10 06:00:00 6.9 20 Oeste 27 Oeste 0 -- -- 90
2020-01-10 05:00:00 6.8 11 Noroeste 18 Oeste 0 -- -- 91
2020-01-10 04:00:00 6.9 5 Noroeste 14 Norte 0 -- -- 94
2020-01-10 03:00:00 6.3 5 Norte 13 Noroeste 0 -- -- 96
2020-01-10 02:00:00 5.1 7 Noroeste 10 Noroeste 0 -- -- 96
2020-01-10 01:00:00 5.3 3 Norte 8 Noroeste 0 -- -- 92
2020-01-10 00:00:00 6.4 5 Noroeste 8 Noroeste 0 -- -- 92
2020-01-09 23:00:00 7.2 4 Norte 9 Noroeste 0 -- -- 90
2020-01-09 22:00:00 7.8 2 Norte 5 Noroeste 0 -- -- 90
2020-01-09 21:00:00 7.6 3 Norte 6 Noroeste 0 -- -- 88
2020-01-09 20:00:00 7.9 4 Norte 7 Noroeste 0 -- -- 84
2020-01-09 19:00:00 9.7 2 Noroeste 4 Sudeste 0 -- -- 75
2020-01-09 18:00:00 12.9 0 Calma 8 Sudoeste 0 -- -- 67
2020-01-09 17:00:00 14.8 4 Oeste 12 Sur 0 -- -- 59
2020-01-09 16:00:00 15.2 4 Sudoeste 10 Sudoeste 0 -- -- 57
2020-01-09 15:00:00 14.8 4 Oeste 15 Oeste 0 -- -- 61
2020-01-09 14:00:00 14.9 6 Sudoeste 13 Sudoeste 0 -- -- 60
2020-01-09 13:00:00 13 9 Norte 18 Noroeste 0 -- -- 67
2020-01-09 12:00:00 11.5 13 Noroeste 19 Noroeste 0 -- -- 75
2020-01-09 11:00:00 9.6 11 Noroeste 23 Norte 0 -- -- 82
2020-01-09 10:00:00 7.6 10 Noroeste 14 Norte 0 -- -- 87
2020-01-09 09:00:00 6.8 9 Norte 14 Norte 0 -- -- 90
2020-01-09 08:00:00 7 8 Norte 12 Norte 0 -- -- 89
2020-01-09 07:00:00 7.5 4 Noroeste 19 Noroeste 0 -- -- 89
2020-01-09 06:00:00 7.5 9 Noroeste 17 Noroeste 0 -- -- 90
2020-01-09 05:00:00 8 6 Norte 11 Norte 0 -- -- 93
2020-01-09 04:00:00 7.6 4 Noroeste 8 Norte 0 -- -- 95
2020-01-09 03:00:00 7.4 5 Noroeste 7 Norte 0 -- -- 95
2020-01-09 02:00:00 7.3 5 Norte 9 Norte 0 -- -- 95
2020-01-09 01:00:00 8.1 4 Oeste 6 Oeste 0 -- -- 94
2020-01-09 00:00:00 8.4 3 Noroeste 5 Noroeste 0 -- -- 95
2020-01-08 23:00:00 8 4 Noroeste 8 Norte 0 -- -- 95
2020-01-08 22:00:00 7.5 5 Noroeste 7 Noroeste 0 -- -- 95
2020-01-08 21:00:00 6.8 4 Norte 6 Norte 0 -- -- 93
2020-01-08 20:00:00 7.2 4 Norte 6 Noroeste 0 -- -- 90
2020-01-08 19:00:00 9.1 5 Noroeste 6 Noroeste 0 -- -- 82
2020-01-08 18:00:00 11.9 4 Este 14 Sudeste 0 -- -- 77
2020-01-08 17:00:00 13.5 9 Sudeste 21 Sudeste 0 -- -- 74
2020-01-08 16:00:00 14.2 11 Sudeste 28 Sudeste 0 -- -- 71
2020-01-08 15:00:00 14.4 13 Sudeste 22 Este 0 -- -- 60
2020-01-08 14:00:00 13.7 13 Este 23 Este 0 -- -- 63
2020-01-08 13:00:00 13.2 10 Sudeste 18 Este 0 -- -- 62
2020-01-08 12:00:00 12 8 Este 14 Este 0 -- -- 58
2020-01-08 11:00:00 10.5 3 Norte 9 Norte 0 -- -- 61
2020-01-08 10:00:00 7.6 4 Noroeste 15 Norte 0 -- -- 71
2020-01-08 09:00:00 4.8 5 Noroeste 16 Noroeste 0 -- -- 76
2020-01-08 08:00:00 5 4 Noroeste 15 Noroeste 0 -- -- 72
2020-01-08 07:00:00 4.4 3 Noroeste 10 Noroeste 0 -- -- 78
2020-01-08 06:00:00 4.4 8 Noroeste 11 Noroeste 0 -- -- 80
2020-01-08 05:00:00 4.8 2 Oeste 14 Noroeste 0 -- -- 81
2020-01-08 04:00:00 5 10 Noroeste 17 Noroeste 0 -- -- 83
2020-01-08 03:00:00 6.7 9 Noroeste 19 Noroeste 0 -- -- 76
2020-01-08 02:00:00 6.1 5 Noroeste 20 Oeste 0 -- -- 80
2020-01-08 01:00:00 5.1 10 Noroeste 20 Noroeste 0 -- -- 91
2020-01-08 00:00:00 3.9 5 Oeste 8 Noroeste 0 -- -- 93
2020-01-07 23:00:00 4.3 4 Norte 8 Norte 0 -- -- 92
2020-01-07 22:00:00 5 5 Norte 6 Norte 0 -- -- 89
2020-01-07 21:00:00 5.4 3 Norte 8 Noroeste 0 -- -- 87
2020-01-07 20:00:00 6.5 4 Norte 6 Norte 0 -- -- 83
2020-01-07 19:00:00 8.4 4 Norte 6 Norte 0 -- -- 76
2020-01-07 18:00:00 12.5 3 Sudeste 7 Sudeste 0 -- -- 65
2020-01-07 17:00:00 14.6 0 Calma 8 Sudoeste 0 -- -- 56
2020-01-07 16:00:00 15.3 4 Sudoeste 9 Sudoeste 0 -- -- 56
2020-01-07 15:00:00 14.6 3 Sudoeste 8 Oeste 0 -- -- 56
2020-01-07 14:00:00 13.6 2 Sudoeste 8 Oeste 0 -- -- 63
2020-01-07 13:00:00 13.5 4 Sudoeste 8 Sudoeste 0 -- -- 63
2020-01-07 12:00:00 11.3 2 Sudoeste 6 Sudoeste 0 -- -- 67
2020-01-07 11:00:00 7.6 3 Sudoeste 6 Sudoeste 0 -- -- 80
2020-01-07 10:00:00 3.8 5 Oeste 9 Sudoeste 0 -- -- 92
2020-01-07 09:00:00 1.7 5 Noroeste 8 Norte 0 -- -- 96
2020-01-07 08:00:00 1.2 6 Norte 9 Norte 0 -- -- 94
2020-01-07 07:00:00 1.3 3 Oeste 5 Sudoeste 0 -- -- 94
2020-01-07 06:00:00 1.9 3 Oeste 9 Norte 0 -- -- 95
2020-01-07 05:00:00 2.1 5 Norte 8 Norte 0 -- -- 94
2020-01-07 04:00:00 2.6 3 Norte 5 Noroeste 0 -- -- 94
2020-01-07 03:00:00 2.8 3 Norte 8 Norte 0 -- -- 91
2020-01-07 02:00:00 3 5 Norte 9 Noroeste 0 -- -- 91
2020-01-07 01:00:00 3.9 3 Norte 7 Noroeste 0 -- -- 88
2020-01-07 00:00:00 4.3 5 Nordeste 8 Norte 0 -- -- 92
2020-01-06 23:00:00 3.8 7 Norte 10 Noroeste 0 -- -- 90
2020-01-06 22:00:00 4.4 4 Noroeste 8 Norte 0 -- -- 88
2020-01-06 21:00:00 5.4 5 Norte 8 Noroeste 0 -- -- 84
2020-01-06 20:00:00 6.7 4 Norte 5 Norte 0 -- -- 80
2020-01-06 19:00:00 8 3 Norte 5 Norte 0 -- -- 77
2020-01-06 18:00:00 12 0 Calma 8 Sudeste 0 -- -- 64
2020-01-06 17:00:00 13.9 4 Sudeste 11 Sudeste 0 -- -- 57
2020-01-06 16:00:00 14.4 5 Sudeste 12 Sudeste 0 -- -- 54
2020-01-06 15:00:00 14.7 5 Sudeste 11 Sudeste 0 -- -- 55
2020-01-06 14:00:00 14.3 5 Sudeste 11 Sudeste 0 -- -- 56
2020-01-06 13:00:00 11.8 2 Este 12 Norte 0 -- -- 64
2020-01-06 12:00:00 10.4 8 Norte 12 Norte 0 -- -- 69
2020-01-06 11:00:00 8.1 7 Norte 13 Noroeste 0 -- -- 76
2020-01-06 10:00:00 5.5 8 Noroeste 14 Noroeste 0 -- -- 88